sensor_id;sensor_type;location;lat;lon;timestamp;P1;durP1;ratioP1;P2;durP2;ratioP2
3643;SDS011;1838;50.742;7.158;2023-02-26T00:00:09;14.57;;;5.10;;
3643;SDS011;1838;50.742;7.158;2023-02-26T00:02:42;12.32;;;5.88;;
3643;SDS011;1838;50.742;7.158;2023-02-26T00:05:13;10.10;;;5.47;;
3643;SDS011;1838;50.742;7.158;2023-02-26T00:07:40;17.08;;;5.60;;
3643;SDS011;1838;50.742;7.158;2023-02-26T00:10:07;12.18;;;5.15;;
3643;SDS011;1838;50.742;7.158;2023-02-26T00:12:34;16.20;;;5.57;;
3643;SDS011;1838;50.742;7.158;2023-02-26T00:15:01;8.70;;;4.68;;
3643;SDS011;1838;50.742;7.158;2023-02-26T00:20:05;10.88;;;4.50;;
3643;SDS011;1838;50.742;7.158;2023-02-26T00:22:31;11.30;;;4.35;;
3643;SDS011;1838;50.742;7.158;2023-02-26T00:24:57;9.57;;;4.80;;
3643;SDS011;1838;50.742;7.158;2023-02-26T00:27:23;14.93;;;4.90;;
3643;SDS011;1838;50.742;7.158;2023-02-26T00:29:48;11.03;;;6.00;;
3643;SDS011;1838;50.742;7.158;2023-02-26T00:32:14;10.23;;;4.60;;
3643;SDS011;1838;50.742;7.158;2023-02-26T00:34:42;14.48;;;5.00;;
3643;SDS011;1838;50.742;7.158;2023-02-26T00:42:45;16.08;;;5.22;;
3643;SDS011;1838;50.742;7.158;2023-02-26T00:45:11;15.33;;;5.80;;
3643;SDS011;1838;50.742;7.158;2023-02-26T00:50:17;11.15;;;5.40;;
3643;SDS011;1838;50.742;7.158;2023-02-26T00:55:34;10.23;;;5.50;;
3643;SDS011;1838;50.742;7.158;2023-02-26T00:58:00;9.57;;;5.23;;
3643;SDS011;1838;50.742;7.158;2023-02-26T01:00:25;16.57;;;5.60;;
3643;SDS011;1838;50.742;7.158;2023-02-26T01:02:51;13.93;;;5.53;;
3643;SDS011;1838;50.742;7.158;2023-02-26T01:05:17;12.93;;;5.93;;
3643;SDS011;1838;50.742;7.158;2023-02-26T01:07:45;13.45;;;5.30;;
3643;SDS011;1838;50.742;7.158;2023-02-26T01:10:18;12.15;;;5.97;;
3643;SDS011;1838;50.742;7.158;2023-02-26T01:12:45;14.80;;;5.18;;
3643;SDS011;1838;50.742;7.158;2023-02-26T01:15:11;12.50;;;5.37;;
3643;SDS011;1838;50.742;7.158;2023-02-26T01:20:19;7.60;;;4.13;;
3643;SDS011;1838;50.742;7.158;2023-02-26T01:25:17;15.60;;;4.95;;
3643;SDS011;1838;50.742;7.158;2023-02-26T01:27:44;13.15;;;5.63;;
3643;SDS011;1838;50.742;7.158;2023-02-26T01:30:10;9.20;;;4.83;;
3643;SDS011;1838;50.742;7.158;2023-02-26T01:32:47;12.48;;;4.85;;
3643;SDS011;1838;50.742;7.158;2023-02-26T01:37:58;24.05;;;4.65;;
3643;SDS011;1838;50.742;7.158;2023-02-26T01:43:27;11.93;;;4.25;;
3643;SDS011;1838;50.742;7.158;2023-02-26T01:46:06;12.00;;;4.40;;
3643;SDS011;1838;50.742;7.158;2023-02-26T01:49:15;8.90;;;4.35;;
3643;SDS011;1838;50.742;7.158;2023-02-26T01:51:49;10.02;;;4.55;;
3643;SDS011;1838;50.742;7.158;2023-02-26T01:54:18;8.68;;;3.70;;
3643;SDS011;1838;50.742;7.158;2023-02-26T01:56:53;10.63;;;3.88;;
3643;SDS011;1838;50.742;7.158;2023-02-26T01:59:23;7.10;;;4.45;;
3643;SDS011;1838;50.742;7.158;2023-02-26T02:01:49;10.57;;;4.30;;
3643;SDS011;1838;50.742;7.158;2023-02-26T02:04:17;17.00;;;4.50;;
3643;SDS011;1838;50.742;7.158;2023-02-26T02:06:43;9.30;;;4.35;;
3643;SDS011;1838;50.742;7.158;2023-02-26T02:09:10;6.05;;;3.50;;
3643;SDS011;1838;50.742;7.158;2023-02-26T02:11:39;11.13;;;4.10;;
3643;SDS011;1838;50.742;7.158;2023-02-26T02:14:26;7.18;;;3.67;;
3643;SDS011;1838;50.742;7.158;2023-02-26T02:17:08;12.02;;;4.28;;
3643;SDS011;1838;50.742;7.158;2023-02-26T02:23:29;13.43;;;4.10;;
3643;SDS011;1838;50.742;7.158;2023-02-26T02:26:18;15.18;;;4.50;;
3643;SDS011;1838;50.742;7.158;2023-02-26T02:34:40;9.10;;;4.70;;
3643;SDS011;1838;50.742;7.158;2023-02-26T02:37:19;7.72;;;4.45;;
3643;SDS011;1838;50.742;7.158;2023-02-26T02:40:01;6.70;;;3.95;;
3643;SDS011;1838;50.742;7.158;2023-02-26T02:42:35;11.68;;;4.20;;
3643;SDS011;1838;50.742;7.158;2023-02-26T02:47:35;11.10;;;4.28;;
3643;SDS011;1838;50.742;7.158;2023-02-26T02:50:07;15.68;;;4.72;;
3643;SDS011;1838;50.742;7.158;2023-02-26T02:52:40;6.32;;;4.07;;
3643;SDS011;1838;50.742;7.158;2023-02-26T02:55:16;4.85;;;3.97;;
3643;SDS011;1838;50.742;7.158;2023-02-26T02:57:48;11.60;;;5.10;;
3643;SDS011;1838;50.742;7.158;2023-02-26T03:00:20;10.63;;;3.70;;
3643;SDS011;1838;50.742;7.158;2023-02-26T03:05:21;9.98;;;4.75;;
3643;SDS011;1838;50.742;7.158;2023-02-26T03:07:49;15.10;;;5.03;;
3643;SDS011;1838;50.742;7.158;2023-02-26T03:10:20;27.67;;;10.07;;
3643;SDS011;1838;50.742;7.158;2023-02-26T03:12:46;24.60;;;8.10;;
3643;SDS011;1838;50.742;7.158;2023-02-26T03:15:11;18.70;;;7.07;;
3643;SDS011;1838;50.742;7.158;2023-02-26T03:17:42;16.88;;;6.95;;
3643;SDS011;1838;50.742;7.158;2023-02-26T03:20:25;22.40;;;7.00;;
3643;SDS011;1838;50.742;7.158;2023-02-26T03:23:10;22.83;;;6.82;;
3643;SDS011;1838;50.742;7.158;2023-02-26T03:31:10;14.73;;;5.78;;
3643;SDS011;1838;50.742;7.158;2023-02-26T03:34:43;11.75;;;5.90;;
3643;SDS011;1838;50.742;7.158;2023-02-26T03:37:06;12.23;;;5.75;;
3643;SDS011;1838;50.742;7.158;2023-02-26T03:39:40;8.13;;;4.75;;
3643;SDS011;1838;50.742;7.158;2023-02-26T03:42:21;12.25;;;5.10;;
3643;SDS011;1838;50.742;7.158;2023-02-26T03:44:50;9.10;;;4.50;;
3643;SDS011;1838;50.742;7.158;2023-02-26T03:47:21;15.95;;;5.13;;
3643;SDS011;1838;50.742;7.158;2023-02-26T03:52:22;11.77;;;4.90;;
3643;SDS011;1838;50.742;7.158;2023-02-26T03:54:55;21.52;;;5.95;;
3643;SDS011;1838;50.742;7.158;2023-02-26T03:57:24;11.85;;;5.18;;
3643;SDS011;1838;50.742;7.158;2023-02-26T03:59:49;12.50;;;4.90;;
3643;SDS011;1838;50.742;7.158;2023-02-26T04:02:18;8.40;;;4.80;;
3643;SDS011;1838;50.742;7.158;2023-02-26T04:04:53;21.52;;;5.53;;
3643;SDS011;1838;50.742;7.158;2023-02-26T04:07:22;16.77;;;5.90;;
3643;SDS011;1838;50.742;7.158;2023-02-26T04:09:49;16.33;;;5.43;;
3643;SDS011;1838;50.742;7.158;2023-02-26T04:12:19;27.10;;;6.00;;
3643;SDS011;1838;50.742;7.158;2023-02-26T04:14:46;11.02;;;4.97;;
3643;SDS011;1838;50.742;7.158;2023-02-26T04:17:12;11.70;;;5.10;;
3643;SDS011;1838;50.742;7.158;2023-02-26T04:19:37;13.30;;;4.73;;
3643;SDS011;1838;50.742;7.158;2023-02-26T04:22:03;8.63;;;5.20;;
3643;SDS011;1838;50.742;7.158;2023-02-26T04:24:29;12.43;;;4.47;;
3643;SDS011;1838;50.742;7.158;2023-02-26T04:26:54;10.60;;;4.87;;
3643;SDS011;1838;50.742;7.158;2023-02-26T04:29:20;7.33;;;4.83;;
3643;SDS011;1838;50.742;7.158;2023-02-26T04:31:45;7.50;;;4.20;;
3643;SDS011;1838;50.742;7.158;2023-02-26T04:34:11;9.00;;;4.07;;
3643;SDS011;1838;50.742;7.158;2023-02-26T04:36:36;7.00;;;4.27;;
3643;SDS011;1838;50.742;7.158;2023-02-26T04:39:02;8.20;;;4.37;;
3643;SDS011;1838;50.742;7.158;2023-02-26T04:41:27;11.70;;;5.00;;
3643;SDS011;1838;50.742;7.158;2023-02-26T04:43:53;8.00;;;5.40;;
3643;SDS011;1838;50.742;7.158;2023-02-26T04:46:18;8.90;;;4.73;;
3643;SDS011;1838;50.742;7.158;2023-02-26T04:48:44;6.03;;;3.80;;
3643;SDS011;1838;50.742;7.158;2023-02-26T04:51:10;11.20;;;4.73;;
3643;SDS011;1838;50.742;7.158;2023-02-26T04:53:35;11.40;;;4.07;;
3643;SDS011;1838;50.742;7.158;2023-02-26T04:56:01;9.97;;;4.27;;
3643;SDS011;1838;50.742;7.158;2023-02-26T04:58:26;6.43;;;4.30;;
3643;SDS011;1838;50.742;7.158;2023-02-26T05:00:52;6.30;;;3.90;;
3643;SDS011;1838;50.742;7.158;2023-02-26T05:03:19;5.95;;;4.25;;
3643;SDS011;1838;50.742;7.158;2023-02-26T05:05:46;9.50;;;3.80;;
3643;SDS011;1838;50.742;7.158;2023-02-26T05:08:12;7.10;;;3.35;;
3643;SDS011;1838;50.742;7.158;2023-02-26T05:10:38;11.80;;;3.80;;
3643;SDS011;1838;50.742;7.158;2023-02-26T05:13:03;9.30;;;3.93;;
3643;SDS011;1838;50.742;7.158;2023-02-26T05:15:29;12.33;;;4.13;;
3643;SDS011;1838;50.742;7.158;2023-02-26T05:17:55;6.17;;;4.10;;
3643;SDS011;1838;50.742;7.158;2023-02-26T05:20:20;5.80;;;4.23;;
3643;SDS011;1838;50.742;7.158;2023-02-26T05:22:46;9.67;;;4.23;;
3643;SDS011;1838;50.742;7.158;2023-02-26T05:25:12;9.83;;;4.47;;
3643;SDS011;1838;50.742;7.158;2023-02-26T05:27:38;9.30;;;4.70;;
3643;SDS011;1838;50.742;7.158;2023-02-26T05:30:05;8.50;;;5.00;;
3643;SDS011;1838;50.742;7.158;2023-02-26T05:32:31;8.43;;;4.32;;
3643;SDS011;1838;50.742;7.158;2023-02-26T05:34:57;8.63;;;4.90;;
3643;SDS011;1838;50.742;7.158;2023-02-26T05:37:23;8.07;;;5.20;;
3643;SDS011;1838;50.742;7.158;2023-02-26T05:39:48;13.13;;;5.20;;
3643;SDS011;1838;50.742;7.158;2023-02-26T05:42:14;15.93;;;4.53;;
3643;SDS011;1838;50.742;7.158;2023-02-26T05:44:40;8.60;;;4.90;;
3643;SDS011;1838;50.742;7.158;2023-02-26T05:47:05;7.57;;;4.40;;
3643;SDS011;1838;50.742;7.158;2023-02-26T05:49:31;10.37;;;4.80;;
3643;SDS011;1838;50.742;7.158;2023-02-26T05:51:56;8.87;;;3.93;;
3643;SDS011;1838;50.742;7.158;2023-02-26T05:54:22;8.53;;;4.43;;
3643;SDS011;1838;50.742;7.158;2023-02-26T05:56:47;5.93;;;3.43;;
3643;SDS011;1838;50.742;7.158;2023-02-26T05:59:13;9.13;;;3.87;;
3643;SDS011;1838;50.742;7.158;2023-02-26T06:01:38;5.90;;;3.63;;
3643;SDS011;1838;50.742;7.158;2023-02-26T06:04:04;9.00;;;3.73;;
3643;SDS011;1838;50.742;7.158;2023-02-26T06:06:31;11.57;;;4.47;;
3643;SDS011;1838;50.742;7.158;2023-02-26T06:08:57;11.85;;;4.07;;
3643;SDS011;1838;50.742;7.158;2023-02-26T06:11:22;4.73;;;2.77;;
3643;SDS011;1838;50.742;7.158;2023-02-26T06:13:48;5.10;;;4.10;;
3643;SDS011;1838;50.742;7.158;2023-02-26T06:16:13;7.00;;;3.87;;
3643;SDS011;1838;50.742;7.158;2023-02-26T06:18:39;7.37;;;4.10;;
3643;SDS011;1838;50.742;7.158;2023-02-26T06:21:05;4.93;;;3.67;;
3643;SDS011;1838;50.742;7.158;2023-02-26T06:23:30;7.63;;;3.97;;
3643;SDS011;1838;50.742;7.158;2023-02-26T06:25:56;9.47;;;4.20;;
3643;SDS011;1838;50.742;7.158;2023-02-26T06:28:23;7.63;;;3.92;;
3643;SDS011;1838;50.742;7.158;2023-02-26T06:30:50;8.60;;;3.45;;
3643;SDS011;1838;50.742;7.158;2023-02-26T06:33:17;8.48;;;3.53;;
3643;SDS011;1838;50.742;7.158;2023-02-26T06:35:43;7.75;;;3.40;;
3643;SDS011;1838;50.742;7.158;2023-02-26T06:38:08;10.70;;;3.40;;
3643;SDS011;1838;50.742;7.158;2023-02-26T06:40:34;10.13;;;4.00;;
3643;SDS011;1838;50.742;7.158;2023-02-26T06:43:01;8.50;;;3.80;;
3643;SDS011;1838;50.742;7.158;2023-02-26T06:45:26;6.97;;;4.50;;
3643;SDS011;1838;50.742;7.158;2023-02-26T06:47:52;10.93;;;3.97;;
3643;SDS011;1838;50.742;7.158;2023-02-26T06:50:19;13.90;;;3.87;;
3643;SDS011;1838;50.742;7.158;2023-02-26T06:52:44;12.57;;;3.67;;
3643;SDS011;1838;50.742;7.158;2023-02-26T06:55:10;5.43;;;3.63;;
3643;SDS011;1838;50.742;7.158;2023-02-26T06:57:36;5.40;;;3.93;;
3643;SDS011;1838;50.742;7.158;2023-02-26T07:00:02;13.53;;;3.77;;
3643;SDS011;1838;50.742;7.158;2023-02-26T07:02:29;8.50;;;3.75;;
3643;SDS011;1838;50.742;7.158;2023-02-26T07:04:54;8.43;;;4.17;;
3643;SDS011;1838;50.742;7.158;2023-02-26T07:07:20;6.07;;;3.10;;
3643;SDS011;1838;50.742;7.158;2023-02-26T07:09:45;6.57;;;3.50;;
3643;SDS011;1838;50.742;7.158;2023-02-26T07:12:11;6.40;;;3.97;;
3643;SDS011;1838;50.742;7.158;2023-02-26T07:14:37;5.93;;;3.40;;
3643;SDS011;1838;50.742;7.158;2023-02-26T07:17:03;6.40;;;3.70;;
3643;SDS011;1838;50.742;7.158;2023-02-26T07:19:28;14.77;;;4.60;;
3643;SDS011;1838;50.742;7.158;2023-02-26T07:21:54;12.70;;;4.53;;
3643;SDS011;1838;50.742;7.158;2023-02-26T07:24:22;9.90;;;4.40;;
3643;SDS011;1838;50.742;7.158;2023-02-26T07:26:48;8.82;;;4.00;;
3643;SDS011;1838;50.742;7.158;2023-02-26T07:29:13;6.40;;;3.60;;
3643;SDS011;1838;50.742;7.158;2023-02-26T07:31:39;4.30;;;3.90;;
3643;SDS011;1838;50.742;7.158;2023-02-26T07:34:04;8.73;;;4.43;;
3643;SDS011;1838;50.742;7.158;2023-02-26T07:36:30;7.33;;;4.33;;
3643;SDS011;1838;50.742;7.158;2023-02-26T07:38:56;9.20;;;5.70;;
3643;SDS011;1838;50.742;7.158;2023-02-26T07:41:21;8.10;;;5.53;;
3643;SDS011;1838;50.742;7.158;2023-02-26T07:43:47;8.03;;;5.07;;
3643;SDS011;1838;50.742;7.158;2023-02-26T07:46:12;13.13;;;5.03;;
3643;SDS011;1838;50.742;7.158;2023-02-26T07:48:38;8.83;;;4.87;;
3643;SDS011;1838;50.742;7.158;2023-02-26T07:51:05;10.10;;;4.47;;
3643;SDS011;1838;50.742;7.158;2023-02-26T07:53:31;8.00;;;5.13;;
3643;SDS011;1838;50.742;7.158;2023-02-26T07:55:57;7.73;;;4.40;;
3643;SDS011;1838;50.742;7.158;2023-02-26T07:58:23;8.93;;;4.83;;
3643;SDS011;1838;50.742;7.158;2023-02-26T08:00:48;24.37;;;10.37;;
3643;SDS011;1838;50.742;7.158;2023-02-26T08:03:15;12.48;;;6.18;;
3643;SDS011;1838;50.742;7.158;2023-02-26T08:05:40;12.70;;;6.13;;
3643;SDS011;1838;50.742;7.158;2023-02-26T08:08:06;12.40;;;5.73;;
3643;SDS011;1838;50.742;7.158;2023-02-26T08:10:31;8.87;;;5.80;;
3643;SDS011;1838;50.742;7.158;2023-02-26T08:12:57;8.30;;;5.40;;
3643;SDS011;1838;50.742;7.158;2023-02-26T08:15:22;7.97;;;6.10;;
3643;SDS011;1838;50.742;7.158;2023-02-26T08:17:50;14.33;;;5.97;;
3643;SDS011;1838;50.742;7.158;2023-02-26T08:20:16;12.25;;;6.55;;
3643;SDS011;1838;50.742;7.158;2023-02-26T08:22:42;15.33;;;6.80;;
3643;SDS011;1838;50.742;7.158;2023-02-26T08:25:07;15.93;;;6.17;;
3643;SDS011;1838;50.742;7.158;2023-02-26T08:27:33;12.87;;;6.77;;
3643;SDS011;1838;50.742;7.158;2023-02-26T08:29:59;15.80;;;7.17;;
3643;SDS011;1838;50.742;7.158;2023-02-26T08:32:24;6.13;;;5.50;;
3643;SDS011;1838;50.742;7.158;2023-02-26T08:34:52;10.75;;;6.00;;
3643;SDS011;1838;50.742;7.158;2023-02-26T08:37:17;10.43;;;6.13;;
3643;SDS011;1838;50.742;7.158;2023-02-26T08:39:45;10.30;;;5.85;;
3643;SDS011;1838;50.742;7.158;2023-02-26T08:42:11;7.80;;;5.27;;
3643;SDS011;1838;50.742;7.158;2023-02-26T08:44:40;6.40;;;5.35;;
3643;SDS011;1838;50.742;7.158;2023-02-26T08:47:06;8.80;;;4.87;;
3643;SDS011;1838;50.742;7.158;2023-02-26T08:49:31;7.43;;;4.80;;
3643;SDS011;1838;50.742;7.158;2023-02-26T08:51:57;7.73;;;5.40;;
3643;SDS011;1838;50.742;7.158;2023-02-26T08:54:22;8.03;;;4.80;;
3643;SDS011;1838;50.742;7.158;2023-02-26T08:56:48;6.87;;;4.93;;
3643;SDS011;1838;50.742;7.158;2023-02-26T08:59:14;9.17;;;5.30;;
3643;SDS011;1838;50.742;7.158;2023-02-26T09:01:40;6.17;;;4.23;;
3643;SDS011;1838;50.742;7.158;2023-02-26T09:04:05;7.67;;;4.67;;
3643;SDS011;1838;50.742;7.158;2023-02-26T09:06:31;16.97;;;5.97;;
3643;SDS011;1838;50.742;7.158;2023-02-26T09:08:57;6.17;;;4.37;;
3643;SDS011;1838;50.742;7.158;2023-02-26T09:11:22;6.80;;;4.30;;
3643;SDS011;1838;50.742;7.158;2023-02-26T09:13:48;6.27;;;3.57;;
3643;SDS011;1838;50.742;7.158;2023-02-26T09:16:14;13.40;;;5.10;;
3643;SDS011;1838;50.742;7.158;2023-02-26T09:18:40;16.63;;;4.30;;
3643;SDS011;1838;50.742;7.158;2023-02-26T09:21:06;5.63;;;3.87;;
3643;SDS011;1838;50.742;7.158;2023-02-26T09:23:31;4.90;;;3.57;;
3643;SDS011;1838;50.742;7.158;2023-02-26T09:25:57;5.67;;;3.33;;
3643;SDS011;1838;50.742;7.158;2023-02-26T09:28:23;5.13;;;3.73;;
3643;SDS011;1838;50.742;7.158;2023-02-26T09:30:50;9.23;;;3.30;;
3643;SDS011;1838;50.742;7.158;2023-02-26T09:33:19;4.27;;;2.93;;
3643;SDS011;1838;50.742;7.158;2023-02-26T09:35:49;5.97;;;4.03;;
3643;SDS011;1838;50.742;7.158;2023-02-26T09:38:15;11.40;;;3.63;;
3643;SDS011;1838;50.742;7.158;2023-02-26T09:46:01;6.90;;;3.03;;
3643;SDS011;1838;50.742;7.158;2023-02-26T09:48:34;6.00;;;2.40;;
3643;SDS011;1838;50.742;7.158;2023-02-26T09:51:02;3.73;;;2.33;;
3643;SDS011;1838;50.742;7.158;2023-02-26T09:53:33;6.07;;;3.10;;
3643;SDS011;1838;50.742;7.158;2023-02-26T09:56:06;22.07;;;8.40;;
3643;SDS011;1838;50.742;7.158;2023-02-26T09:58:38;37.13;;;13.13;;
3643;SDS011;1838;50.742;7.158;2023-02-26T10:01:16;6.57;;;3.07;;
3643;SDS011;1838;50.742;7.158;2023-02-26T10:04:15;13.50;;;6.60;;
3643;SDS011;1838;50.742;7.158;2023-02-26T10:07:54;12.37;;;3.93;;
3643;SDS011;1838;50.742;7.158;2023-02-26T10:10:06;9.57;;;2.70;;
3643;SDS011;1838;50.742;7.158;2023-02-26T10:12:33;5.20;;;3.43;;
3643;SDS011;1838;50.742;7.158;2023-02-26T10:15:15;6.80;;;2.90;;
3643;SDS011;1838;50.742;7.158;2023-02-26T10:20:24;4.30;;;2.30;;
3643;SDS011;1838;50.742;7.158;2023-02-26T10:23:00;3.70;;;2.20;;
3643;SDS011;1838;50.742;7.158;2023-02-26T10:25:38;4.03;;;2.00;;
3643;SDS011;1838;50.742;7.158;2023-02-26T10:33:32;2.80;;;1.53;;
3643;SDS011;1838;50.742;7.158;2023-02-26T10:36:13;6.33;;;2.27;;
3643;SDS011;1838;50.742;7.158;2023-02-26T10:38:46;2.30;;;1.47;;
3643;SDS011;1838;50.742;7.158;2023-02-26T10:41:16;4.03;;;2.07;;
3643;SDS011;1838;50.742;7.158;2023-02-26T10:43:49;2.47;;;1.40;;
3643;SDS011;1838;50.742;7.158;2023-02-26T10:49:30;2.40;;;1.83;;
3643;SDS011;1838;50.742;7.158;2023-02-26T10:52:07;2.50;;;1.80;;
3643;SDS011;1838;50.742;7.158;2023-02-26T10:54:41;2.60;;;1.40;;
3643;SDS011;1838;50.742;7.158;2023-02-26T10:57:26;3.17;;;1.63;;
3643;SDS011;1838;50.742;7.158;2023-02-26T10:59:57;2.47;;;1.60;;
3643;SDS011;1838;50.742;7.158;2023-02-26T11:02:31;3.00;;;1.50;;
3643;SDS011;1838;50.742;7.158;2023-02-26T11:05:03;3.87;;;2.00;;
3643;SDS011;1838;50.742;7.158;2023-02-26T11:07:36;2.30;;;1.40;;
3643;SDS011;1838;50.742;7.158;2023-02-26T11:10:03;4.70;;;2.60;;
3643;SDS011;1838;50.742;7.158;2023-02-26T11:12:36;4.53;;;1.60;;
3643;SDS011;1838;50.742;7.158;2023-02-26T11:15:02;3.63;;;1.43;;
3643;SDS011;1838;50.742;7.158;2023-02-26T11:17:29;5.00;;;1.30;;
3643;SDS011;1838;50.742;7.158;2023-02-26T11:20:04;3.53;;;2.20;;
3643;SDS011;1838;50.742;7.158;2023-02-26T11:22:43;22.40;;;17.60;;
3643;SDS011;1838;50.742;7.158;2023-02-26T11:25:12;8.10;;;7.17;;
3643;SDS011;1838;50.742;7.158;2023-02-26T11:27:40;9.97;;;7.13;;
3643;SDS011;1838;50.742;7.158;2023-02-26T11:30:14;8.03;;;6.00;;
3643;SDS011;1838;50.742;7.158;2023-02-26T11:32:41;3.70;;;3.30;;
3643;SDS011;1838;50.742;7.158;2023-02-26T11:35:12;2.40;;;1.10;;
3643;SDS011;1838;50.742;7.158;2023-02-26T11:37:39;7.30;;;4.20;;
3643;SDS011;1838;50.742;7.158;2023-02-26T11:43:00;3.53;;;1.87;;
3643;SDS011;1838;50.742;7.158;2023-02-26T11:45:30;1.80;;;1.17;;
3643;SDS011;1838;50.742;7.158;2023-02-26T11:48:01;3.53;;;3.23;;
3643;SDS011;1838;50.742;7.158;2023-02-26T11:50:33;7.20;;;5.17;;
3643;SDS011;1838;50.742;7.158;2023-02-26T11:53:07;2.87;;;2.47;;
3643;SDS011;1838;50.742;7.158;2023-02-26T11:55:58;6.03;;;2.73;;
3643;SDS011;1838;50.742;7.158;2023-02-26T11:58:26;2.80;;;1.30;;
3643;SDS011;1838;50.742;7.158;2023-02-26T12:00:54;3.17;;;1.10;;
3643;SDS011;1838;50.742;7.158;2023-02-26T12:03:25;7.27;;;1.30;;
3643;SDS011;1838;50.742;7.158;2023-02-26T12:05:56;3.40;;;1.50;;
3643;SDS011;1838;50.742;7.158;2023-02-26T12:08:24;3.40;;;1.50;;
3643;SDS011;1838;50.742;7.158;2023-02-26T12:14:02;2.30;;;1.03;;
3643;SDS011;1838;50.742;7.158;2023-02-26T12:19:21;1.73;;;0.80;;
3643;SDS011;1838;50.742;7.158;2023-02-26T12:33:52;5.73;;;3.50;;
3643;SDS011;1838;50.742;7.158;2023-02-26T12:42:37;1.90;;;1.03;;
3643;SDS011;1838;50.742;7.158;2023-02-26T12:45:11;3.93;;;1.07;;
3643;SDS011;1838;50.742;7.158;2023-02-26T12:53:32;4.20;;;2.90;;
3643;SDS011;1838;50.742;7.158;2023-02-26T13:01:35;2.73;;;1.60;;
3643;SDS011;1838;50.742;7.158;2023-02-26T13:07:23;16.53;;;1.60;;
3643;SDS011;1838;50.742;7.158;2023-02-26T13:15:39;2.97;;;2.40;;
3643;SDS011;1838;50.742;7.158;2023-02-26T13:21:35;2.57;;;1.57;;
3643;SDS011;1838;50.742;7.158;2023-02-26T13:24:27;2.13;;;1.40;;
3643;SDS011;1838;50.742;7.158;2023-02-26T13:26:56;3.97;;;1.30;;
3643;SDS011;1838;50.742;7.158;2023-02-26T13:29:25;4.27;;;1.43;;
3643;SDS011;1838;50.742;7.158;2023-02-26T13:32:00;2.63;;;1.40;;
3643;SDS011;1838;50.742;7.158;2023-02-26T13:34:50;2.10;;;1.50;;
3643;SDS011;1838;50.742;7.158;2023-02-26T13:37:25;2.70;;;1.27;;
3643;SDS011;1838;50.742;7.158;2023-02-26T13:40:00;3.90;;;1.40;;
3643;SDS011;1838;50.742;7.158;2023-02-26T13:42:57;2.20;;;1.30;;
3643;SDS011;1838;50.742;7.158;2023-02-26T13:51:38;2.20;;;0.83;;
3643;SDS011;1838;50.742;7.158;2023-02-26T13:56:42;2.87;;;1.60;;
3643;SDS011;1838;50.742;7.158;2023-02-26T14:06:50;3.20;;;1.10;;
3643;SDS011;1838;50.742;7.158;2023-02-26T14:17:16;2.00;;;0.90;;
3643;SDS011;1838;50.742;7.158;2023-02-26T14:19:43;3.57;;;1.20;;
3643;SDS011;1838;50.742;7.158;2023-02-26T14:22:22;5.20;;;1.13;;
3643;SDS011;1838;50.742;7.158;2023-02-26T14:31:07;5.40;;;1.70;;
3643;SDS011;1838;50.742;7.158;2023-02-26T14:33:38;4.90;;;1.37;;
3643;SDS011;1838;50.742;7.158;2023-02-26T14:36:13;3.47;;;1.03;;
3643;SDS011;1838;50.742;7.158;2023-02-26T14:38:48;2.30;;;1.33;;
3643;SDS011;1838;50.742;7.158;2023-02-26T14:43:57;3.23;;;1.30;;
3643;SDS011;1838;50.742;7.158;2023-02-26T14:46:30;1.77;;;1.10;;
3643;SDS011;1838;50.742;7.158;2023-02-26T14:48:57;5.00;;;1.27;;
3643;SDS011;1838;50.742;7.158;2023-02-26T14:51:42;2.37;;;1.10;;
3643;SDS011;1838;50.742;7.158;2023-02-26T15:11:11;4.53;;;2.00;;
3643;SDS011;1838;50.742;7.158;2023-02-26T15:13:51;2.30;;;1.43;;
3643;SDS011;1838;50.742;7.158;2023-02-26T15:16:42;2.17;;;1.17;;
3643;SDS011;1838;50.742;7.158;2023-02-26T15:19:13;6.30;;;1.30;;
3643;SDS011;1838;50.742;7.158;2023-02-26T15:24:49;1.90;;;0.90;;
3643;SDS011;1838;50.742;7.158;2023-02-26T15:27:16;5.53;;;1.37;;
3643;SDS011;1838;50.742;7.158;2023-02-26T15:29:43;4.33;;;1.27;;
3643;SDS011;1838;50.742;7.158;2023-02-26T15:32:28;3.57;;;1.20;;
3643;SDS011;1838;50.742;7.158;2023-02-26T15:34:57;1.83;;;0.80;;
3643;SDS011;1838;50.742;7.158;2023-02-26T15:37:24;3.70;;;1.13;;
3643;SDS011;1838;50.742;7.158;2023-02-26T15:39:52;4.47;;;1.10;;
3643;SDS011;1838;50.742;7.158;2023-02-26T15:42:18;2.60;;;0.77;;
3643;SDS011;1838;50.742;7.158;2023-02-26T15:44:46;3.60;;;1.30;;
3643;SDS011;1838;50.742;7.158;2023-02-26T15:47:14;3.43;;;1.33;;
3643;SDS011;1838;50.742;7.158;2023-02-26T15:49:42;1.80;;;1.17;;
3643;SDS011;1838;50.742;7.158;2023-02-26T15:52:12;3.37;;;1.77;;
3643;SDS011;1838;50.742;7.158;2023-02-26T15:54:44;6.77;;;4.27;;
3643;SDS011;1838;50.742;7.158;2023-02-26T15:57:13;4.77;;;2.00;;
3643;SDS011;1838;50.742;7.158;2023-02-26T15:59:41;4.00;;;1.60;;
3643;SDS011;1838;50.742;7.158;2023-02-26T16:02:17;5.73;;;1.40;;
3643;SDS011;1838;50.742;7.158;2023-02-26T16:04:51;1.70;;;1.00;;
3643;SDS011;1838;50.742;7.158;2023-02-26T16:07:19;2.60;;;1.43;;
3643;SDS011;1838;50.742;7.158;2023-02-26T16:09:47;3.40;;;1.50;;
3643;SDS011;1838;50.742;7.158;2023-02-26T16:12:16;2.93;;;1.20;;
3643;SDS011;1838;50.742;7.158;2023-02-26T16:14:46;3.30;;;1.30;;
3643;SDS011;1838;50.742;7.158;2023-02-26T16:17:24;12.63;;;3.33;;
3643;SDS011;1838;50.742;7.158;2023-02-26T16:20:01;1.93;;;1.17;;
3643;SDS011;1838;50.742;7.158;2023-02-26T16:22:31;6.50;;;1.80;;
3643;SDS011;1838;50.742;7.158;2023-02-26T16:25:07;9.60;;;8.30;;
3643;SDS011;1838;50.742;7.158;2023-02-26T16:28:04;4.80;;;1.70;;
3643;SDS011;1838;50.742;7.158;2023-02-26T16:30:52;8.87;;;5.23;;
3643;SDS011;1838;50.742;7.158;2023-02-26T16:33:20;11.90;;;7.40;;
3643;SDS011;1838;50.742;7.158;2023-02-26T16:36:04;3.47;;;1.43;;
3643;SDS011;1838;50.742;7.158;2023-02-26T16:38:47;6.97;;;3.37;;
3643;SDS011;1838;50.742;7.158;2023-02-26T16:41:14;18.20;;;11.40;;
3643;SDS011;1838;50.742;7.158;2023-02-26T16:46:16;8.80;;;4.70;;
3643;SDS011;1838;50.742;7.158;2023-02-26T16:49:00;4.40;;;1.53;;
3643;SDS011;1838;50.742;7.158;2023-02-26T16:51:35;13.23;;;8.30;;
3643;SDS011;1838;50.742;7.158;2023-02-26T16:54:08;11.53;;;6.30;;
3643;SDS011;1838;50.742;7.158;2023-02-26T16:56:41;4.27;;;1.93;;
3643;SDS011;1838;50.742;7.158;2023-02-26T17:01:51;4.93;;;3.90;;
3643;SDS011;1838;50.742;7.158;2023-02-26T17:04:24;3.40;;;1.57;;
3643;SDS011;1838;50.742;7.158;2023-02-26T17:06:53;7.73;;;2.90;;
3643;SDS011;1838;50.742;7.158;2023-02-26T17:09:29;5.07;;;2.10;;
3643;SDS011;1838;50.742;7.158;2023-02-26T17:12:09;3.90;;;2.20;;
3643;SDS011;1838;50.742;7.158;2023-02-26T17:14:59;2.97;;;2.03;;
3643;SDS011;1838;50.742;7.158;2023-02-26T17:17:25;6.80;;;4.10;;
3643;SDS011;1838;50.742;7.158;2023-02-26T17:19:51;4.20;;;2.40;;
3643;SDS011;1838;50.742;7.158;2023-02-26T17:22:18;5.70;;;5.10;;
3643;SDS011;1838;50.742;7.158;2023-02-26T17:24:50;7.10;;;5.87;;
3643;SDS011;1838;50.742;7.158;2023-02-26T17:27:27;5.50;;;3.97;;
3643;SDS011;1838;50.742;7.158;2023-02-26T17:29:56;5.13;;;2.73;;
3643;SDS011;1838;50.742;7.158;2023-02-26T17:32:24;8.07;;;5.03;;
3643;SDS011;1838;50.742;7.158;2023-02-26T17:34:55;5.23;;;1.63;;
3643;SDS011;1838;50.742;7.158;2023-02-26T17:37:20;4.43;;;1.30;;
3643;SDS011;1838;50.742;7.158;2023-02-26T17:39:47;2.70;;;1.80;;
3643;SDS011;1838;50.742;7.158;2023-02-26T17:42:13;2.77;;;1.57;;
3643;SDS011;1838;50.742;7.158;2023-02-26T17:44:41;3.40;;;1.37;;
3643;SDS011;1838;50.742;7.158;2023-02-26T17:47:25;3.33;;;1.27;;
3643;SDS011;1838;50.742;7.158;2023-02-26T17:49:51;2.70;;;1.63;;
3643;SDS011;1838;50.742;7.158;2023-02-26T17:52:18;13.07;;;2.57;;
3643;SDS011;1838;50.742;7.158;2023-02-26T17:54:44;3.97;;;2.20;;
3643;SDS011;1838;50.742;7.158;2023-02-26T17:57:13;2.67;;;2.03;;
3643;SDS011;1838;50.742;7.158;2023-02-26T17:59:41;8.27;;;4.37;;
3643;SDS011;1838;50.742;7.158;2023-02-26T18:02:14;3.20;;;1.67;;
3643;SDS011;1838;50.742;7.158;2023-02-26T18:04:42;2.73;;;1.97;;
3643;SDS011;1838;50.742;7.158;2023-02-26T18:07:08;3.90;;;2.50;;
3643;SDS011;1838;50.742;7.158;2023-02-26T18:09:40;5.53;;;3.40;;
3643;SDS011;1838;50.742;7.158;2023-02-26T18:12:09;6.50;;;3.97;;
3643;SDS011;1838;50.742;7.158;2023-02-26T18:14:40;4.77;;;3.37;;
3643;SDS011;1838;50.742;7.158;2023-02-26T18:17:08;3.20;;;2.80;;
3643;SDS011;1838;50.742;7.158;2023-02-26T18:19:39;3.73;;;2.87;;